sensor_id;sensor_type;location;lat;lon;timestamp;temperature;humidity
41447;DHT22;27185;52.040;4.490;2023-07-24T00:01:14;20.80;99.90
41447;DHT22;27185;52.040;4.490;2023-07-24T00:03:59;20.80;99.90
41447;DHT22;27185;52.040;4.490;2023-07-24T00:06:45;20.70;99.90
41447;DHT22;27185;52.040;4.490;2023-07-24T00:09:30;20.70;99.90
41447;DHT22;27185;52.040;4.490;2023-07-24T00:12:16;20.70;99.90
41447;DHT22;27185;52.040;4.490;2023-07-24T00:15:02;20.70;99.90
41447;DHT22;27185;52.040;4.490;2023-07-24T00:17:47;20.60;99.90
41447;DHT22;27185;52.040;4.490;2023-07-24T00:20:35;20.60;99.90
41447;DHT22;27185;52.040;4.490;2023-07-24T00:23:21;20.60;99.90
41447;DHT22;27185;52.040;4.490;2023-07-24T00:26:07;20.60;99.90
41447;DHT22;27185;52.040;4.490;2023-07-24T00:28:52;20.60;99.90
41447;DHT22;27185;52.040;4.490;2023-07-24T00:31:38;20.60;99.90
41447;DHT22;27185;52.040;4.490;2023-07-24T00:34:23;20.60;99.90
41447;DHT22;27185;52.040;4.490;2023-07-24T00:37:09;20.50;99.90
41447;DHT22;27185;52.040;4.490;2023-07-24T00:39:55;20.50;99.90
41447;DHT22;27185;52.040;4.490;2023-07-24T00:42:40;20.50;99.90
41447;DHT22;27185;52.040;4.490;2023-07-24T00:45:26;20.50;99.90
41447;DHT22;27185;52.040;4.490;2023-07-24T00:48:11;20.50;99.90
41447;DHT22;27185;52.040;4.490;2023-07-24T00:50:57;20.50;99.90
41447;DHT22;27185;52.040;4.490;2023-07-24T00:53:43;20.50;99.90
41447;DHT22;27185;52.040;4.490;2023-07-24T00:56:29;20.40;99.90
41447;DHT22;27185;52.040;4.490;2023-07-24T00:59:16;20.40;99.90
41447;DHT22;27185;52.040;4.490;2023-07-24T01:02:01;20.40;99.90
41447;DHT22;27185;52.040;4.490;2023-07-24T01:04:47;20.30;99.90
41447;DHT22;27185;52.040;4.490;2023-07-24T01:07:33;20.30;99.90
41447;DHT22;27185;52.040;4.490;2023-07-24T01:10:19;20.30;99.90
41447;DHT22;27185;52.040;4.490;2023-07-24T01:16:09;20.20;99.90
41447;DHT22;27185;52.040;4.490;2023-07-24T01:19:00;20.20;99.90
41447;DHT22;27185;52.040;4.490;2023-07-24T01:22:01;20.20;99.90
41447;DHT22;27185;52.040;4.490;2023-07-24T01:25:10;20.10;99.90
41447;DHT22;27185;52.040;4.490;2023-07-24T01:27:59;20.10;99.90
41447;DHT22;27185;52.040;4.490;2023-07-24T01:30:44;20.10;99.90
41447;DHT22;27185;52.040;4.490;2023-07-24T01:33:30;20.10;99.90
41447;DHT22;27185;52.040;4.490;2023-07-24T01:36:18;20.10;99.90
41447;DHT22;27185;52.040;4.490;2023-07-24T01:39:04;20.10;99.90
41447;DHT22;27185;52.040;4.490;2023-07-24T01:41:50;20.10;99.90
41447;DHT22;27185;52.040;4.490;2023-07-24T01:44:36;20.10;99.90
41447;DHT22;27185;52.040;4.490;2023-07-24T01:47:22;20.10;99.90
41447;DHT22;27185;52.040;4.490;2023-07-24T01:50:08;20.10;99.90
41447;DHT22;27185;52.040;4.490;2023-07-24T01:52:53;20.10;99.90
41447;DHT22;27185;52.040;4.490;2023-07-24T01:55:39;20.10;99.90
41447;DHT22;27185;52.040;4.490;2023-07-24T01:58:25;20.10;99.90
41447;DHT22;27185;52.040;4.490;2023-07-24T02:01:10;20.10;99.90
41447;DHT22;27185;52.040;4.490;2023-07-24T02:03:56;20.10;99.90
41447;DHT22;27185;52.040;4.490;2023-07-24T02:06:41;20.10;99.90
41447;DHT22;27185;52.040;4.490;2023-07-24T02:09:27;20.10;99.90
41447;DHT22;27185;52.040;4.490;2023-07-24T02:12:12;20.10;99.90
41447;DHT22;27185;52.040;4.490;2023-07-24T02:14:58;20.10;99.90
41447;DHT22;27185;52.040;4.490;2023-07-24T02:17:45;20.10;99.90
41447;DHT22;27185;52.040;4.490;2023-07-24T02:20:30;20.00;99.90
41447;DHT22;27185;52.040;4.490;2023-07-24T02:23:16;20.00;99.90
41447;DHT22;27185;52.040;4.490;2023-07-24T02:26:01;20.00;99.90
41447;DHT22;27185;52.040;4.490;2023-07-24T02:28:47;20.00;99.90
41447;DHT22;27185;52.040;4.490;2023-07-24T02:31:33;20.00;99.90
41447;DHT22;27185;52.040;4.490;2023-07-24T02:34:19;20.10;99.90
41447;DHT22;27185;52.040;4.490;2023-07-24T02:37:04;20.10;99.90
41447;DHT22;27185;52.040;4.490;2023-07-24T02:39:51;20.10;99.90
41447;DHT22;27185;52.040;4.490;2023-07-24T02:42:38;20.10;99.90
41447;DHT22;27185;52.040;4.490;2023-07-24T02:45:23;20.10;99.90
41447;DHT22;27185;52.040;4.490;2023-07-24T02:48:09;20.10;99.90
41447;DHT22;27185;52.040;4.490;2023-07-24T02:50:55;20.10;99.90
41447;DHT22;27185;52.040;4.490;2023-07-24T02:53:40;20.10;99.90
41447;DHT22;27185;52.040;4.490;2023-07-24T02:56:26;20.20;99.90
41447;DHT22;27185;52.040;4.490;2023-07-24T02:59:11;20.20;99.90
41447;DHT22;27185;52.040;4.490;2023-07-24T03:01:57;20.20;99.90
41447;DHT22;27185;52.040;4.490;2023-07-24T03:04:43;20.20;99.90
41447;DHT22;27185;52.040;4.490;2023-07-24T03:07:29;20.20;99.90
41447;DHT22;27185;52.040;4.490;2023-07-24T03:10:14;20.10;99.90
41447;DHT22;27185;52.040;4.490;2023-07-24T03:13:00;20.20;99.90
41447;DHT22;27185;52.040;4.490;2023-07-24T03:15:55;20.20;99.90
41447;DHT22;27185;52.040;4.490;2023-07-24T03:18:41;20.20;99.90
41447;DHT22;27185;52.040;4.490;2023-07-24T03:21:27;20.20;99.90
41447;DHT22;27185;52.040;4.490;2023-07-24T03:24:12;20.20;99.90
41447;DHT22;27185;52.040;4.490;2023-07-24T03:26:58;20.20;99.90
41447;DHT22;27185;52.040;4.490;2023-07-24T03:29:43;20.20;99.90
41447;DHT22;27185;52.040;4.490;2023-07-24T03:32:29;20.20;99.90
41447;DHT22;27185;52.040;4.490;2023-07-24T03:35:14;20.20;99.90
41447;DHT22;27185;52.040;4.490;2023-07-24T03:38:00;20.20;99.90
41447;DHT22;27185;52.040;4.490;2023-07-24T03:40:45;20.20;99.90
41447;DHT22;27185;52.040;4.490;2023-07-24T03:43:32;20.20;99.90
41447;DHT22;27185;52.040;4.490;2023-07-24T03:46:18;20.20;99.90
41447;DHT22;27185;52.040;4.490;2023-07-24T03:49:03;20.10;99.90
41447;DHT22;27185;52.040;4.490;2023-07-24T03:51:49;20.10;99.90
41447;DHT22;27185;52.040;4.490;2023-07-24T03:54:35;20.10;99.90
41447;DHT22;27185;52.040;4.490;2023-07-24T03:57:20;20.10;99.90
41447;DHT22;27185;52.040;4.490;2023-07-24T04:00:06;20.00;99.90
41447;DHT22;27185;52.040;4.490;2023-07-24T04:02:52;20.00;99.90
41447;DHT22;27185;52.040;4.490;2023-07-24T04:05:37;20.00;99.90
41447;DHT22;27185;52.040;4.490;2023-07-24T04:08:23;20.00;99.90
41447;DHT22;27185;52.040;4.490;2023-07-24T04:11:09;19.90;99.90
41447;DHT22;27185;52.040;4.490;2023-07-24T04:13:54;20.00;99.90
41447;DHT22;27185;52.040;4.490;2023-07-24T04:16:40;20.00;99.90
41447;DHT22;27185;52.040;4.490;2023-07-24T04:19:25;20.00;99.90
41447;DHT22;27185;52.040;4.490;2023-07-24T04:22:11;20.00;99.90
41447;DHT22;27185;52.040;4.490;2023-07-24T04:24:56;20.00;99.90
41447;DHT22;27185;52.040;4.490;2023-07-24T04:27:42;20.00;99.90
41447;DHT22;27185;52.040;4.490;2023-07-24T04:30:28;20.00;99.90
41447;DHT22;27185;52.040;4.490;2023-07-24T04:33:13;20.10;99.90
41447;DHT22;27185;52.040;4.490;2023-07-24T04:35:59;20.10;99.90
41447;DHT22;27185;52.040;4.490;2023-07-24T04:38:44;20.10;99.90
41447;DHT22;27185;52.040;4.490;2023-07-24T04:41:32;20.10;99.90
41447;DHT22;27185;52.040;4.490;2023-07-24T04:44:17;20.10;99.90
41447;DHT22;27185;52.040;4.490;2023-07-24T04:47:03;20.10;99.90
41447;DHT22;27185;52.040;4.490;2023-07-24T04:49:49;20.10;99.90
41447;DHT22;27185;52.040;4.490;2023-07-24T04:52:35;20.10;99.90
41447;DHT22;27185;52.040;4.490;2023-07-24T04:55:21;20.10;99.90
41447;DHT22;27185;52.040;4.490;2023-07-24T04:58:06;20.10;99.90
41447;DHT22;27185;52.040;4.490;2023-07-24T05:00:52;20.10;99.90
41447;DHT22;27185;52.040;4.490;2023-07-24T05:03:37;20.10;99.90
41447;DHT22;27185;52.040;4.490;2023-07-24T05:06:23;20.10;99.90
41447;DHT22;27185;52.040;4.490;2023-07-24T05:09:09;20.10;99.90
41447;DHT22;27185;52.040;4.490;2023-07-24T05:11:55;20.10;99.90
41447;DHT22;27185;52.040;4.490;2023-07-24T05:14:40;20.20;99.90
41447;DHT22;27185;52.040;4.490;2023-07-24T05:17:26;20.20;99.90
41447;DHT22;27185;52.040;4.490;2023-07-24T05:20:11;20.20;99.90
41447;DHT22;27185;52.040;4.490;2023-07-24T05:22:57;20.30;99.90
41447;DHT22;27185;52.040;4.490;2023-07-24T05:25:42;20.20;99.90
41447;DHT22;27185;52.040;4.490;2023-07-24T05:28:30;20.30;99.90
41447;DHT22;27185;52.040;4.490;2023-07-24T05:31:15;20.30;99.90
41447;DHT22;27185;52.040;4.490;2023-07-24T05:34:01;20.30;99.90
41447;DHT22;27185;52.040;4.490;2023-07-24T05:36:46;20.30;99.90
41447;DHT22;27185;52.040;4.490;2023-07-24T05:39:32;20.30;99.90
41447;DHT22;27185;52.040;4.490;2023-07-24T05:42:18;20.40;99.90
41447;DHT22;27185;52.040;4.490;2023-07-24T05:45:04;20.40;99.90
41447;DHT22;27185;52.040;4.490;2023-07-24T05:47:50;20.40;99.90
41447;DHT22;27185;52.040;4.490;2023-07-24T05:50:35;20.50;99.90
41447;DHT22;27185;52.040;4.490;2023-07-24T05:53:21;20.50;99.90
41447;DHT22;27185;52.040;4.490;2023-07-24T05:56:06;20.50;99.90
41447;DHT22;27185;52.040;4.490;2023-07-24T05:58:52;20.50;99.90
41447;DHT22;27185;52.040;4.490;2023-07-24T06:01:37;20.50;99.90
41447;DHT22;27185;52.040;4.490;2023-07-24T06:04:23;20.60;99.90
41447;DHT22;27185;52.040;4.490;2023-07-24T06:07:08;20.60;99.90
41447;DHT22;27185;52.040;4.490;2023-07-24T06:09:54;20.70;99.90
41447;DHT22;27185;52.040;4.490;2023-07-24T06:12:40;20.80;99.90
41447;DHT22;27185;52.040;4.490;2023-07-24T06:15:25;20.80;99.90
41447;DHT22;27185;52.040;4.490;2023-07-24T06:18:11;20.90;99.90
41447;DHT22;27185;52.040;4.490;2023-07-24T06:20:56;20.90;99.90
41447;DHT22;27185;52.040;4.490;2023-07-24T06:23:42;20.90;99.90
41447;DHT22;27185;52.040;4.490;2023-07-24T06:26:28;21.00;99.90
41447;DHT22;27185;52.040;4.490;2023-07-24T06:29:14;21.00;99.90
41447;DHT22;27185;52.040;4.490;2023-07-24T06:32:00;21.00;99.90
41447;DHT22;27185;52.040;4.490;2023-07-24T06:34:45;21.00;99.90
41447;DHT22;27185;52.040;4.490;2023-07-24T06:37:31;21.10;99.90
41447;DHT22;27185;52.040;4.490;2023-07-24T06:40:17;21.20;99.90
41447;DHT22;27185;52.040;4.490;2023-07-24T06:43:02;21.20;99.90
41447;DHT22;27185;52.040;4.490;2023-07-24T06:45:48;21.20;99.90
41447;DHT22;27185;52.040;4.490;2023-07-24T06:48:33;21.20;99.90
41447;DHT22;27185;52.040;4.490;2023-07-24T06:51:19;21.30;99.90
41447;DHT22;27185;52.040;4.490;2023-07-24T06:54:09;21.30;99.90
41447;DHT22;27185;52.040;4.490;2023-07-24T06:56:54;21.40;99.90
41447;DHT22;27185;52.040;4.490;2023-07-24T06:59:40;21.40;99.90
41447;DHT22;27185;52.040;4.490;2023-07-24T07:02:25;21.50;99.90
41447;DHT22;27185;52.040;4.490;2023-07-24T07:05:13;21.60;99.90
41447;DHT22;27185;52.040;4.490;2023-07-24T07:07:59;21.70;99.90
41447;DHT22;27185;52.040;4.490;2023-07-24T07:10:44;21.70;99.90
41447;DHT22;27185;52.040;4.490;2023-07-24T07:13:30;21.80;99.90
41447;DHT22;27185;52.040;4.490;2023-07-24T07:16:16;21.90;99.90
41447;DHT22;27185;52.040;4.490;2023-07-24T07:19:02;21.90;99.90
41447;DHT22;27185;52.040;4.490;2023-07-24T07:21:48;22.00;99.90
41447;DHT22;27185;52.040;4.490;2023-07-24T07:24:33;22.00;99.90
41447;DHT22;27185;52.040;4.490;2023-07-24T07:27:19;22.00;99.90
41447;DHT22;27185;52.040;4.490;2023-07-24T07:30:05;22.00;99.90
41447;DHT22;27185;52.040;4.490;2023-07-24T07:32:51;22.00;99.90
41447;DHT22;27185;52.040;4.490;2023-07-24T07:35:37;22.00;99.90
41447;DHT22;27185;52.040;4.490;2023-07-24T07:38:22;22.00;99.90
41447;DHT22;27185;52.040;4.490;2023-07-24T07:41:08;22.10;99.90
41447;DHT22;27185;52.040;4.490;2023-07-24T07:43:54;22.10;99.90
41447;DHT22;27185;52.040;4.490;2023-07-24T07:46:39;22.20;99.90
41447;DHT22;27185;52.040;4.490;2023-07-24T07:49:25;22.30;99.90
41447;DHT22;27185;52.040;4.490;2023-07-24T07:52:11;22.40;99.90
41447;DHT22;27185;52.040;4.490;2023-07-24T07:54:59;22.50;99.90
41447;DHT22;27185;52.040;4.490;2023-07-24T07:57:45;22.50;99.90
41447;DHT22;27185;52.040;4.490;2023-07-24T08:00:30;22.60;99.90
41447;DHT22;27185;52.040;4.490;2023-07-24T08:03:16;22.70;99.90
41447;DHT22;27185;52.040;4.490;2023-07-24T08:06:02;22.70;99.90
41447;DHT22;27185;52.040;4.490;2023-07-24T08:08:47;22.70;99.90
41447;DHT22;27185;52.040;4.490;2023-07-24T08:11:33;22.70;99.90
41447;DHT22;27185;52.040;4.490;2023-07-24T08:14:18;22.60;99.90
41447;DHT22;27185;52.040;4.490;2023-07-24T08:17:04;22.50;99.90
41447;DHT22;27185;52.040;4.490;2023-07-24T08:19:50;22.50;99.90
41447;DHT22;27185;52.040;4.490;2023-07-24T08:22:36;22.50;99.90
41447;DHT22;27185;52.040;4.490;2023-07-24T08:25:22;22.50;99.90
41447;DHT22;27185;52.040;4.490;2023-07-24T08:28:07;22.50;99.90
41447;DHT22;27185;52.040;4.490;2023-07-24T08:30:57;22.50;99.90
41447;DHT22;27185;52.040;4.490;2023-07-24T08:33:47;22.40;99.90
41447;DHT22;27185;52.040;4.490;2023-07-24T08:36:32;22.50;99.90
41447;DHT22;27185;52.040;4.490;2023-07-24T08:39:18;22.50;99.90
41447;DHT22;27185;52.040;4.490;2023-07-24T08:42:13;22.60;99.90
41447;DHT22;27185;52.040;4.490;2023-07-24T08:44:59;22.70;99.90
41447;DHT22;27185;52.040;4.490;2023-07-24T08:47:45;22.80;99.90
41447;DHT22;27185;52.040;4.490;2023-07-24T08:50:31;22.90;99.90
41447;DHT22;27185;52.040;4.490;2023-07-24T08:53:19;23.00;99.90
41447;DHT22;27185;52.040;4.490;2023-07-24T08:56:06;23.00;99.90
41447;DHT22;27185;52.040;4.490;2023-07-24T08:58:52;23.10;99.90
41447;DHT22;27185;52.040;4.490;2023-07-24T09:01:38;23.20;99.90
41447;DHT22;27185;52.040;4.490;2023-07-24T09:04:24;23.20;99.90
41447;DHT22;27185;52.040;4.490;2023-07-24T09:07:10;23.30;99.90
41447;DHT22;27185;52.040;4.490;2023-07-24T09:09:56;23.40;99.90
41447;DHT22;27185;52.040;4.490;2023-07-24T09:12:42;23.50;99.90
41447;DHT22;27185;52.040;4.490;2023-07-24T09:15:28;23.70;99.90
41447;DHT22;27185;52.040;4.490;2023-07-24T09:18:13;23.80;99.90
41447;DHT22;27185;52.040;4.490;2023-07-24T09:20:59;23.90;99.90
41447;DHT22;27185;52.040;4.490;2023-07-24T09:23:44;24.00;99.90
41447;DHT22;27185;52.040;4.490;2023-07-24T09:26:30;24.00;99.80
41447;DHT22;27185;52.040;4.490;2023-07-24T09:29:17;24.00;99.90
41447;DHT22;27185;52.040;4.490;2023-07-24T09:32:02;24.10;99.70
41447;DHT22;27185;52.040;4.490;2023-07-24T09:34:49;24.10;99.70
41447;DHT22;27185;52.040;4.490;2023-07-24T09:37:41;24.20;99.30
41447;DHT22;27185;52.040;4.490;2023-07-24T09:40:26;24.30;99.80
41447;DHT22;27185;52.040;4.490;2023-07-24T09:43:22;24.60;99.90
41447;DHT22;27185;52.040;4.490;2023-07-24T09:46:08;24.80;98.40
41447;DHT22;27185;52.040;4.490;2023-07-24T09:48:55;25.00;98.50
41447;DHT22;27185;52.040;4.490;2023-07-24T09:51:42;25.00;98.00
41447;DHT22;27185;52.040;4.490;2023-07-24T09:54:33;25.00;95.90
41447;DHT22;27185;52.040;4.490;2023-07-24T09:57:27;24.90;96.80
41447;DHT22;27185;52.040;4.490;2023-07-24T10:00:14;24.80;97.60
41447;DHT22;27185;52.040;4.490;2023-07-24T10:02:59;24.70;97.70
41447;DHT22;27185;52.040;4.490;2023-07-24T10:05:46;24.50;98.00
41447;DHT22;27185;52.040;4.490;2023-07-24T10:08:32;24.40;98.10
41447;DHT22;27185;52.040;4.490;2023-07-24T10:11:18;24.30;98.40
41447;DHT22;27185;52.040;4.490;2023-07-24T10:14:04;24.20;98.70
41447;DHT22;27185;52.040;4.490;2023-07-24T10:16:50;24.20;99.00
41447;DHT22;27185;52.040;4.490;2023-07-24T10:19:42;24.40;99.20
41447;DHT22;27185;52.040;4.490;2023-07-24T10:22:30;24.60;98.90
41447;DHT22;27185;52.040;4.490;2023-07-24T10:25:16;24.90;98.40
41447;DHT22;27185;52.040;4.490;2023-07-24T10:28:09;25.30;98.10
41447;DHT22;27185;52.040;4.490;2023-07-24T10:30:58;25.60;97.80
41447;DHT22;27185;52.040;4.490;2023-07-24T10:33:44;26.00;97.60
41447;DHT22;27185;52.040;4.490;2023-07-24T10:36:34;26.30;97.20
41447;DHT22;27185;52.040;4.490;2023-07-24T10:39:20;26.60;95.60
41447;DHT22;27185;52.040;4.490;2023-07-24T10:42:10;26.80;95.70
41447;DHT22;27185;52.040;4.490;2023-07-24T10:45:04;27.00;95.10
41447;DHT22;27185;52.040;4.490;2023-07-24T10:47:50;27.20;93.80
41447;DHT22;27185;52.040;4.490;2023-07-24T10:50:41;27.30;94.90
41447;DHT22;27185;52.040;4.490;2023-07-24T10:53:26;27.20;93.30
41447;DHT22;27185;52.040;4.490;2023-07-24T10:56:13;27.10;94.20
41447;DHT22;27185;52.040;4.490;2023-07-24T10:59:03;27.20;94.50
41447;DHT22;27185;52.040;4.490;2023-07-24T11:01:49;27.20;93.70
41447;DHT22;27185;52.040;4.490;2023-07-24T11:04:35;27.10;94.20
41447;DHT22;27185;52.040;4.490;2023-07-24T11:07:21;26.90;94.50
41447;DHT22;27185;52.040;4.490;2023-07-24T11:10:20;26.70;94.50
41447;DHT22;27185;52.040;4.490;2023-07-24T11:13:10;26.60;93.80
41447;DHT22;27185;52.040;4.490;2023-07-24T11:15:55;26.60;94.00
41447;DHT22;27185;52.040;4.490;2023-07-24T11:18:48;26.40;94.50
41447;DHT22;27185;52.040;4.490;2023-07-24T11:21:36;26.20;94.40
41447;DHT22;27185;52.040;4.490;2023-07-24T11:24:22;26.00;94.40
41447;DHT22;27185;52.040;4.490;2023-07-24T11:27:13;26.00;95.30
41447;DHT22;27185;52.040;4.490;2023-07-24T11:30:00;25.90;94.80
41447;DHT22;27185;52.040;4.490;2023-07-24T11:32:46;26.10;95.30
41447;DHT22;27185;52.040;4.490;2023-07-24T11:35:32;26.10;95.10
41447;DHT22;27185;52.040;4.490;2023-07-24T11:38:18;26.10;94.80
41447;DHT22;27185;52.040;4.490;2023-07-24T11:41:04;26.00;94.60
41447;DHT22;27185;52.040;4.490;2023-07-24T11:43:50;25.80;95.00
41447;DHT22;27185;52.040;4.490;2023-07-24T11:46:36;25.70;95.40
41447;DHT22;27185;52.040;4.490;2023-07-24T11:49:21;25.70;95.70
41447;DHT22;27185;52.040;4.490;2023-07-24T11:52:07;25.80;95.90
41447;DHT22;27185;52.040;4.490;2023-07-24T11:54:59;25.90;95.70
41447;DHT22;27185;52.040;4.490;2023-07-24T11:58:00;25.80;95.00
41447;DHT22;27185;52.040;4.490;2023-07-24T12:00:47;25.70;94.90
41447;DHT22;27185;52.040;4.490;2023-07-24T12:03:32;25.60;95.60
41447;DHT22;27185;52.040;4.490;2023-07-24T12:06:18;25.40;95.60
41447;DHT22;27185;52.040;4.490;2023-07-24T12:09:05;25.30;95.40
41447;DHT22;27185;52.040;4.490;2023-07-24T12:11:51;25.10;95.70
41447;DHT22;27185;52.040;4.490;2023-07-24T12:14:37;25.00;95.80
41447;DHT22;27185;52.040;4.490;2023-07-24T12:17:22;24.90;96.00
41447;DHT22;27185;52.040;4.490;2023-07-24T12:20:08;24.70;95.80
41447;DHT22;27185;52.040;4.490;2023-07-24T12:22:57;24.60;96.00
41447;DHT22;27185;52.040;4.490;2023-07-24T12:25:43;24.50;96.20
41447;DHT22;27185;52.040;4.490;2023-07-24T12:28:28;24.50;96.50
41447;DHT22;27185;52.040;4.490;2023-07-24T12:31:14;24.50;96.60
41447;DHT22;27185;52.040;4.490;2023-07-24T12:33:59;24.40;96.90
41447;DHT22;27185;52.040;4.490;2023-07-24T12:36:45;24.40;97.10
41447;DHT22;27185;52.040;4.490;2023-07-24T12:39:32;24.50;97.30
41447;DHT22;27185;52.040;4.490;2023-07-24T12:42:18;24.60;97.40
41447;DHT22;27185;52.040;4.490;2023-07-24T12:45:04;24.60;97.20
41447;DHT22;27185;52.040;4.490;2023-07-24T12:47:50;24.50;97.10
41447;DHT22;27185;52.040;4.490;2023-07-24T12:50:36;24.30;97.20
41447;DHT22;27185;52.040;4.490;2023-07-24T12:53:21;24.30;97.70
41447;DHT22;27185;52.040;4.490;2023-07-24T12:56:07;24.20;98.20
41447;DHT22;27185;52.040;4.490;2023-07-24T12:58:52;24.20;98.10
41447;DHT22;27185;52.040;4.490;2023-07-24T13:01:38;24.30;97.90
41447;DHT22;27185;52.040;4.490;2023-07-24T13:04:23;24.30;97.80
41447;DHT22;27185;52.040;4.490;2023-07-24T13:07:09;24.40;97.70
41447;DHT22;27185;52.040;4.490;2023-07-24T13:09:55;24.40;97.70
41447;DHT22;27185;52.040;4.490;2023-07-24T13:12:40;24.40;97.60
41447;DHT22;27185;52.040;4.490;2023-07-24T13:15:26;24.30;97.50
41447;DHT22;27185;52.040;4.490;2023-07-24T13:18:11;24.20;97.30
41447;DHT22;27185;52.040;4.490;2023-07-24T13:20:59;24.00;97.30
41447;DHT22;27185;52.040;4.490;2023-07-24T13:23:44;23.80;97.40
41447;DHT22;27185;52.040;4.490;2023-07-24T13:26:32;23.70;97.60
41447;DHT22;27185;52.040;4.490;2023-07-24T13:29:17;23.60;97.90
41447;DHT22;27185;52.040;4.490;2023-07-24T13:32:03;23.50;98.20
41447;DHT22;27185;52.040;4.490;2023-07-24T13:34:48;23.50;98.40
41447;DHT22;27185;52.040;4.490;2023-07-24T13:37:34;23.50;98.00
41447;DHT22;27185;52.040;4.490;2023-07-24T13:40:20;23.60;97.90
41447;DHT22;27185;52.040;4.490;2023-07-24T13:43:05;23.50;97.90
41447;DHT22;27185;52.040;4.490;2023-07-24T13:45:51;23.50;97.80
41447;DHT22;27185;52.040;4.490;2023-07-24T13:48:36;23.40;97.90
41447;DHT22;27185;52.040;4.490;2023-07-24T13:51:22;23.40;98.40
41447;DHT22;27185;52.040;4.490;2023-07-24T13:54:11;23.30;98.00
41447;DHT22;27185;52.040;4.490;2023-07-24T13:56:56;23.20;98.00
41447;DHT22;27185;52.040;4.490;2023-07-24T13:59:42;23.10;98.00
41447;DHT22;27185;52.040;4.490;2023-07-24T14:02:28;22.90;98.20
41447;DHT22;27185;52.040;4.490;2023-07-24T14:05:13;22.80;98.50
41447;DHT22;27185;52.040;4.490;2023-07-24T14:08:00;22.70;98.50
41447;DHT22;27185;52.040;4.490;2023-07-24T14:10:45;22.50;98.70
41447;DHT22;27185;52.040;4.490;2023-07-24T14:13:31;22.50;98.80
41447;DHT22;27185;52.040;4.490;2023-07-24T14:16:16;22.40;98.80
41447;DHT22;27185;52.040;4.490;2023-07-24T14:19:03;22.30;98.90
41447;DHT22;27185;52.040;4.490;2023-07-24T14:21:48;22.20;99.10
41447;DHT22;27185;52.040;4.490;2023-07-24T14:24:34;22.10;99.30
41447;DHT22;27185;52.040;4.490;2023-07-24T14:27:19;22.00;99.50
41447;DHT22;27185;52.040;4.490;2023-07-24T14:30:05;21.90;99.60
41447;DHT22;27185;52.040;4.490;2023-07-24T14:32:51;21.80;99.90
41447;DHT22;27185;52.040;4.490;2023-07-24T14:35:37;21.60;99.70
41447;DHT22;27185;52.040;4.490;2023-07-24T14:38:23;21.40;99.90
41447;DHT22;27185;52.040;4.490;2023-07-24T14:41:08;21.20;99.90
41447;DHT22;27185;52.040;4.490;2023-07-24T14:43:54;21.00;99.90
41447;DHT22;27185;52.040;4.490;2023-07-24T14:46:39;20.80;99.90
41447;DHT22;27185;52.040;4.490;2023-07-24T14:49:25;20.70;99.90
41447;DHT22;27185;52.040;4.490;2023-07-24T14:52:11;20.70;99.90
41447;DHT22;27185;52.040;4.490;2023-07-24T14:54:56;20.70;99.90
41447;DHT22;27185;52.040;4.490;2023-07-24T14:57:42;20.80;99.90
41447;DHT22;27185;52.040;4.490;2023-07-24T15:00:28;20.90;99.90
41447;DHT22;27185;52.040;4.490;2023-07-24T15:03:14;21.00;99.90
41447;DHT22;27185;52.040;4.490;2023-07-24T15:06:00;21.10;99.90
41447;DHT22;27185;52.040;4.490;2023-07-24T15:08:50;21.20;99.90
41447;DHT22;27185;52.040;4.490;2023-07-24T15:11:41;21.20;99.90
41447;DHT22;27185;52.040;4.490;2023-07-24T15:14:26;21.20;99.90
41447;DHT22;27185;52.040;4.490;2023-07-24T15:17:12;21.30;99.90
41447;DHT22;27185;52.040;4.490;2023-07-24T15:19:59;21.30;99.50
41447;DHT22;27185;52.040;4.490;2023-07-24T15:22:45;21.30;99.00
41447;DHT22;27185;52.040;4.490;2023-07-24T15:25:30;21.20;99.30
41447;DHT22;27185;52.040;4.490;2023-07-24T15:28:16;21.20;99.20
41447;DHT22;27185;52.040;4.490;2023-07-24T15:31:02;21.10;99.30
41447;DHT22;27185;52.040;4.490;2023-07-24T15:33:47;21.00;99.40
41447;DHT22;27185;52.040;4.490;2023-07-24T15:36:35;20.90;99.40
41447;DHT22;27185;52.040;4.490;2023-07-24T15:39:21;20.90;99.10
41447;DHT22;27185;52.040;4.490;2023-07-24T15:42:07;20.90;99.30
41447;DHT22;27185;52.040;4.490;2023-07-24T15:44:52;20.90;99.30
41447;DHT22;27185;52.040;4.490;2023-07-24T15:47:38;20.90;99.40
41447;DHT22;27185;52.040;4.490;2023-07-24T15:50:24;21.00;99.50
41447;DHT22;27185;52.040;4.490;2023-07-24T15:53:09;21.10;99.60
41447;DHT22;27185;52.040;4.490;2023-07-24T15:55:55;21.20;99.00
41447;DHT22;27185;52.040;4.490;2023-07-24T15:58:40;21.30;98.70
41447;DHT22;27185;52.040;4.490;2023-07-24T16:01:28;21.40;98.50
41447;DHT22;27185;52.040;4.490;2023-07-24T16:04:13;21.40;98.40
41447;DHT22;27185;52.040;4.490;2023-07-24T16:06:59;21.50;98.40
41447;DHT22;27185;52.040;4.490;2023-07-24T16:09:45;21.50;98.30
41447;DHT22;27185;52.040;4.490;2023-07-24T16:12:30;21.40;98.30
41447;DHT22;27185;52.040;4.490;2023-07-24T16:15:16;21.30;98.50
41447;DHT22;27185;52.040;4.490;2023-07-24T16:18:01;21.10;98.50
41447;DHT22;27185;52.040;4.490;2023-07-24T16:20:47;21.00;98.80
41447;DHT22;27185;52.040;4.490;2023-07-24T16:23:33;21.00;99.30
41447;DHT22;27185;52.040;4.490;2023-07-24T16:26:18;20.90;99.60
41447;DHT22;27185;52.040;4.490;2023-07-24T16:29:04;21.00;99.90
41447;DHT22;27185;52.040;4.490;2023-07-24T16:31:50;21.10;99.50
41447;DHT22;27185;52.040;4.490;2023-07-24T16:34:36;21.20;99.10
41447;DHT22;27185;52.040;4.490;2023-07-24T16:37:21;21.30;99.10
41447;DHT22;27185;52.040;4.490;2023-07-24T16:40:10;21.40;98.70
41447;DHT22;27185;52.040;4.490;2023-07-24T16:42:56;21.50;98.90
41447;DHT22;27185;52.040;4.490;2023-07-24T16:45:41;21.70;98.40
41447;DHT22;27185;52.040;4.490;2023-07-24T16:48:27;21.90;98.40
41447;DHT22;27185;52.040;4.490;2023-07-24T16:51:13;22.00;97.80
41447;DHT22;27185;52.040;4.490;2023-07-24T16:53:59;22.10;97.10
41447;DHT22;27185;52.040;4.490;2023-07-24T16:56:45;22.20;97.30
41447;DHT22;27185;52.040;4.490;2023-07-24T16:59:30;22.20;96.80
41447;DHT22;27185;52.040;4.490;2023-07-24T17:02:16;22.20;96.80
41447;DHT22;27185;52.040;4.490;2023-07-24T17:05:02;22.30;96.30
41447;DHT22;27185;52.040;4.490;2023-07-24T17:07:48;22.40;96.60
41447;DHT22;27185;52.040;4.490;2023-07-24T17:10:47;22.40;96.20
41447;DHT22;27185;52.040;4.490;2023-07-24T17:13:33;22.40;94.70
41447;DHT22;27185;52.040;4.490;2023-07-24T17:16:19;22.20;95.20
41447;DHT22;27185;52.040;4.490;2023-07-24T17:19:05;22.00;95.40
41447;DHT22;27185;52.040;4.490;2023-07-24T17:21:50;21.70;95.70
41447;DHT22;27185;52.040;4.490;2023-07-24T17:24:36;21.50;96.20
41447;DHT22;27185;52.040;4.490;2023-07-24T17:27:22;21.30;96.60
41447;DHT22;27185;52.040;4.490;2023-07-24T17:30:07;21.10;97.00
41447;DHT22;27185;52.040;4.490;2023-07-24T17:32:53;20.90;97.40